createdAt,value
2023-02-22T00:02:14.066Z,15.02
2023-02-22T00:05:31.581Z,10.85
2023-02-22T00:08:43.954Z,11.12
2023-02-22T00:11:56.556Z,13.75
2023-02-22T00:15:10.022Z,12.35
2023-02-22T00:18:22.635Z,14.45
2023-02-22T00:21:35.020Z,13.62
2023-02-22T00:24:48.430Z,11.90
2023-02-22T00:28:00.779Z,16.50
2023-02-22T00:31:14.955Z,14.77
2023-02-22T00:34:28.034Z,12.32
2023-02-22T00:37:44.232Z,16.95
2023-02-22T00:40:56.684Z,17.30
2023-02-22T00:44:09.857Z,12.32
2023-02-22T00:47:22.223Z,12.55
2023-02-22T00:50:35.020Z,11.73
2023-02-22T00:53:47.741Z,10.75
2023-02-22T00:57:00.389Z,11.68
2023-02-22T01:00:21.077Z,13.85
2023-02-22T01:03:35.333Z,13.98
2023-02-22T01:06:47.877Z,14.52
2023-02-22T01:10:01.903Z,15.05
2023-02-22T01:13:14.300Z,13.40
2023-02-22T01:16:26.906Z,18.10
2023-02-22T01:19:42.512Z,15.40
2023-02-22T01:22:56.382Z,10.93
2023-02-22T01:26:08.706Z,15.10
2023-02-22T01:29:21.701Z,13.15
2023-02-22T01:32:37.178Z,16.70
2023-02-22T01:35:50.964Z,12.27
2023-02-22T01:39:03.556Z,14.02
2023-02-22T01:42:16.527Z,15.52
2023-02-22T01:45:34.671Z,14.43
2023-02-22T01:48:50.880Z,16.30
2023-02-22T01:52:04.654Z,15.20
2023-02-22T01:55:17.430Z,13.70
2023-02-22T01:58:31.986Z,15.35
2023-02-22T02:01:44.789Z,16.83
2023-02-22T02:04:57.465Z,17.35
2023-02-22T02:08:30.219Z,17.08
2023-02-22T02:11:42.941Z,16.60
2023-02-22T02:15:25.608Z,15.85
2023-02-22T02:18:38.002Z,14.52
2023-02-22T02:22:08.205Z,14.38
2023-02-22T02:25:44.873Z,14.10
2023-02-22T02:29:31.541Z,14.98
2023-02-22T02:32:45.635Z,12.20
2023-02-22T02:36:09.693Z,14.73
2023-02-22T02:39:31.160Z,13.30
2023-02-22T02:43:25.845Z,15.32
2023-02-22T02:46:56.220Z,14.63
2023-02-22T02:50:17.295Z,13.43
2023-02-22T02:53:37.533Z,16.27
2023-02-22T02:56:50.660Z,18.27
2023-02-22T03:00:05.112Z,17.25
2023-02-22T03:03:20.344Z,19.10
2023-02-22T03:06:49.556Z,16.45
2023-02-22T03:10:18.240Z,18.62
2023-02-22T03:14:03.074Z,15.13
2023-02-22T03:17:45.694Z,22.90
2023-02-22T03:21:01.809Z,17.10
2023-02-22T03:24:22.160Z,15.35
2023-02-22T03:27:43.652Z,14.50
2023-02-22T03:31:10.909Z,16.65
2023-02-22T03:34:26.376Z,33.07
2023-02-22T03:37:42.558Z,22.27
2023-02-22T03:40:55.328Z,23.98
2023-02-22T03:44:09.680Z,19.12
2023-02-22T03:47:23.467Z,21.50
2023-02-22T03:50:36.940Z,24.12
2023-02-22T03:53:49.552Z,23.40
2023-02-22T03:57:12.718Z,18.80
2023-02-22T04:00:27.099Z,18.75
2023-02-22T04:03:40.423Z,18.40
2023-02-22T04:06:53.003Z,19.77
2023-02-22T04:10:08.608Z,19.23
2023-02-22T04:13:22.446Z,15.60
2023-02-22T04:16:35.853Z,15.98
2023-02-22T04:19:51.479Z,13.77
2023-02-22T04:23:04.515Z,16.37
2023-02-22T04:26:17.258Z,15.88
2023-02-22T04:29:30.866Z,21.10
2023-02-22T04:32:43.306Z,18.00
2023-02-22T04:35:58.272Z,30.83
2023-02-22T04:39:12.145Z,25.40
2023-02-22T04:42:24.837Z,17.55
2023-02-22T04:45:38.098Z,19.15
2023-02-22T04:48:51.302Z,15.82
2023-02-22T04:52:05.895Z,16.50
2023-02-22T04:55:18.808Z,15.23
2023-02-22T04:58:31.854Z,25.33
2023-02-22T05:01:44.632Z,24.52
2023-02-22T05:04:57.092Z,24.00
2023-02-22T05:08:09.758Z,32.20
2023-02-22T05:11:22.527Z,19.73
2023-02-22T05:14:35.551Z,28.80
2023-02-22T05:17:47.935Z,23.52
2023-02-22T05:21:00.628Z,23.48
2023-02-22T05:24:12.926Z,25.17
2023-02-22T05:27:25.801Z,27.62
2023-02-22T05:30:39.829Z,27.65
2023-02-22T05:33:52.812Z,28.20
2023-02-22T05:37:05.179Z,27.75
2023-02-22T05:40:22.355Z,30.42
2023-02-22T05:43:34.728Z,34.08
2023-02-22T05:46:47.434Z,48.38
2023-02-22T05:49:59.912Z,30.98
2023-02-22T05:53:12.540Z,33.60
2023-02-22T05:56:26.056Z,27.95
2023-02-22T05:59:38.714Z,32.00
2023-02-22T06:03:09.864Z,28.73
2023-02-22T06:06:23.911Z,28.42
2023-02-22T06:09:36.229Z,32.25
2023-02-22T06:12:49.208Z,40.10
2023-02-22T06:16:01.839Z,38.95
2023-02-22T06:19:14.487Z,33.95
2023-02-22T06:22:26.884Z,47.67
2023-02-22T06:25:39.534Z,38.70
2023-02-22T06:28:51.878Z,51.10
2023-02-22T06:32:04.732Z,43.75
2023-02-22T06:35:17.275Z,41.13
2023-02-22T06:38:29.924Z,37.33
2023-02-22T06:41:46.064Z,41.20
2023-02-22T06:44:58.686Z,37.17
2023-02-22T06:48:11.015Z,42.78
2023-02-22T06:51:23.650Z,43.83
2023-02-22T06:54:36.868Z,36.08
2023-02-22T06:57:49.537Z,37.30
2023-02-22T07:01:03.870Z,36.42
2023-02-22T07:04:16.681Z,34.83
2023-02-22T07:07:29.862Z,38.90
2023-02-22T07:10:42.555Z,24.85
2023-02-22T07:13:55.566Z,19.12
2023-02-22T07:17:11.685Z,29.45
2023-02-22T07:20:25.020Z,34.00
2023-02-22T07:23:38.198Z,35.00
2023-02-22T07:26:50.534Z,54.42
2023-02-22T07:30:03.650Z,49.88
2023-02-22T07:33:16.058Z,58.13
2023-02-22T07:36:28.752Z,40.25
2023-02-22T07:39:43.795Z,25.12
2023-02-22T07:43:01.091Z,25.17
2023-02-22T07:46:13.435Z,25.75
2023-02-22T07:49:26.056Z,28.48
2023-02-22T07:52:38.459Z,23.08
2023-02-22T07:55:51.958Z,19.77
2023-02-22T07:59:04.346Z,22.48
2023-02-22T08:02:17.152Z,23.98
2023-02-22T08:05:30.436Z,19.02
2023-02-22T08:08:42.963Z,19.40
2023-02-22T08:11:55.710Z,18.42
2023-02-22T08:15:09.188Z,18.23
2023-02-22T08:18:23.750Z,18.15
2023-02-22T08:21:36.115Z,15.57
2023-02-22T08:24:48.759Z,17.98
2023-02-22T08:28:12.037Z,15.98
2023-02-22T08:31:24.716Z,18.92
2023-02-22T08:36:34.680Z,15.50
2023-02-22T08:39:47.542Z,12.77
2023-02-22T08:43:00.016Z,14.10
2023-02-22T08:46:12.729Z,17.73
2023-02-22T08:49:25.111Z,15.20
2023-02-22T08:52:37.707Z,15.18
2023-02-22T08:55:50.035Z,15.30
2023-02-22T08:59:02.679Z,13.75
2023-02-22T09:02:16.175Z,15.10
2023-02-22T09:05:31.352Z,16.27
2023-02-22T09:08:44.167Z,15.05
2023-02-22T09:11:56.840Z,14.65
2023-02-22T09:15:09.673Z,14.80
2023-02-22T09:18:22.457Z,15.02
2023-02-22T09:21:34.906Z,13.93
2023-02-22T09:24:47.577Z,15.77
2023-02-22T09:28:00.135Z,15.30
2023-02-22T09:31:13.924Z,19.02
2023-02-22T09:34:29.771Z,13.40
2023-02-22T09:37:45.070Z,13.77
2023-02-22T09:41:23.893Z,11.77
2023-02-22T09:44:36.397Z,12.55
2023-02-22T09:48:08.190Z,11.45
2023-02-22T09:51:53.118Z,14.40
2023-02-22T09:55:12.841Z,19.25
2023-02-22T09:58:33.429Z,13.20
2023-02-22T10:01:47.630Z,21.90
2023-02-22T10:05:08.423Z,22.92
2023-02-22T10:08:21.807Z,28.95
2023-02-22T10:11:57.053Z,15.85
2023-02-22T10:15:24.528Z,15.50
2023-02-22T10:18:50.277Z,20.55
2023-02-22T10:22:21.717Z,14.35
2023-02-22T10:25:36.260Z,12.07
2023-02-22T10:29:22.247Z,13.93
2023-02-22T10:32:43.477Z,12.90
2023-02-22T10:35:55.843Z,15.10
2023-02-22T10:39:27.237Z,12.45
2023-02-22T10:42:39.661Z,20.73
2023-02-22T10:45:56.017Z,17.58
2023-02-22T10:49:08.528Z,14.45
2023-02-22T10:52:28.090Z,16.02
2023-02-22T10:56:06.161Z,19.95
2023-02-22T10:59:35.237Z,17.00
2023-02-22T11:03:01.066Z,20.37
2023-02-22T11:06:22.841Z,17.87
2023-02-22T11:09:52.601Z,17.42
2023-02-22T11:13:27.249Z,17.10
2023-02-22T11:16:43.853Z,12.98
2023-02-22T11:19:56.578Z,14.60
2023-02-22T11:23:08.915Z,13.57
2023-02-22T11:26:21.584Z,14.43
2023-02-22T11:29:37.495Z,17.10
2023-02-22T11:32:59.961Z,15.60
2023-02-22T11:36:16.538Z,12.05
2023-02-22T11:39:34.322Z,15.23
2023-02-22T11:42:46.883Z,18.10
2023-02-22T11:46:08.302Z,13.88
2023-02-22T11:49:25.510Z,16.10
2023-02-22T11:52:42.637Z,15.43
2023-02-22T11:56:02.016Z,23.17
2023-02-22T11:59:22.909Z,15.35
2023-02-22T12:03:02.010Z,17.58
2023-02-22T12:06:26.668Z,17.23
2023-02-22T12:09:56.388Z,14.35
2023-02-22T12:13:30.455Z,15.77
2023-02-22T12:17:15.065Z,14.68
2023-02-22T12:20:30.996Z,11.75
2023-02-22T12:23:54.797Z,17.15
2023-02-22T12:27:10.871Z,16.12
2023-02-22T12:30:28.927Z,17.48
2023-02-22T12:34:08.116Z,18.33
2023-02-22T12:37:27.917Z,10.82
2023-02-22T12:41:01.559Z,11.52
2023-02-22T12:44:22.949Z,18.77
2023-02-22T12:47:42.777Z,13.57
2023-02-22T12:51:02.375Z,13.18
2023-02-22T12:55:00.676Z,12.27
2023-02-22T12:58:19.173Z,16.03
2023-02-22T13:01:40.887Z,18.55
2023-02-22T13:04:53.280Z,14.25
2023-02-22T13:08:37.246Z,20.75
2023-02-22T13:12:11.438Z,12.63
2023-02-22T13:15:34.216Z,31.30
2023-02-22T13:18:55.573Z,16.77
2023-02-22T13:22:26.755Z,16.92
2023-02-22T13:25:44.198Z,13.80
2023-02-22T13:29:20.722Z,12.63
2023-02-22T13:32:56.068Z,10.75
2023-02-22T13:36:31.226Z,12.77
2023-02-22T13:40:06.652Z,18.90
2023-02-22T13:43:19.094Z,17.00
2023-02-22T13:46:43.731Z,13.65
2023-02-22T13:50:21.164Z,10.48
2023-02-22T13:53:43.800Z,15.30
2023-02-22T13:56:56.597Z,15.32
2023-02-22T14:00:41.429Z,12.20
2023-02-22T14:03:54.245Z,27.60
2023-02-22T14:07:18.846Z,19.83
2023-02-22T14:10:49.373Z,21.50
2023-02-22T14:14:01.584Z,19.55
2023-02-22T14:17:32.119Z,15.15
2023-02-22T14:20:44.475Z,16.10
2023-02-22T14:23:57.330Z,12.77
2023-02-22T14:27:09.872Z,14.32
2023-02-22T14:30:26.142Z,15.40
2023-02-22T14:33:57.251Z,21.08
2023-02-22T14:37:17.404Z,17.48
2023-02-22T14:40:31.071Z,21.40
2023-02-22T14:43:43.702Z,23.25
2023-02-22T14:46:57.084Z,22.67
2023-02-22T14:50:44.621Z,18.98
2023-02-22T14:54:18.641Z,22.75
2023-02-22T14:57:42.269Z,21.12
2023-02-22T15:00:56.885Z,20.33
2023-02-22T15:04:28.717Z,22.02
2023-02-22T15:07:51.690Z,22.25
2023-02-22T15:11:04.869Z,25.40
2023-02-22T15:14:26.691Z,24.83
2023-02-22T15:17:39.637Z,21.75
2023-02-22T15:20:56.222Z,19.80
2023-02-22T15:24:09.085Z,22.25
2023-02-22T15:27:21.406Z,24.75
2023-02-22T15:30:34.470Z,33.65
2023-02-22T15:33:47.184Z,28.70
2023-02-22T15:37:19.296Z,33.40
2023-02-22T15:40:34.291Z,31.65
2023-02-22T15:44:21.346Z,30.90
2023-02-22T15:51:06.823Z,30.05
2023-02-22T15:54:26.980Z,25.27
2023-02-22T15:57:40.610Z,28.83
2023-02-22T16:01:18.809Z,26.30
2023-02-22T16:04:31.800Z,26.75
2023-02-22T16:07:46.965Z,26.77
2023-02-22T16:11:03.612Z,29.42
2023-02-22T16:14:30.389Z,28.33
2023-02-22T16:17:55.999Z,27.27
2023-02-22T16:21:15.407Z,25.80
2023-02-22T16:24:29.798Z,23.62
2023-02-22T16:28:06.271Z,26.67
2023-02-22T16:31:25.273Z,24.55
2023-02-22T16:34:37.827Z,30.58
2023-02-22T16:37:51.777Z,33.22
2023-02-22T16:41:05.208Z,32.95
2023-02-22T16:44:17.871Z,32.50
2023-02-22T16:47:30.247Z,37.15
2023-02-22T16:50:42.873Z,40.65
2023-02-22T16:53:55.877Z,39.45
2023-02-22T16:57:21.093Z,38.40
2023-02-22T17:00:34.600Z,40.30
2023-02-22T17:03:47.920Z,36.10
2023-02-22T17:07:00.375Z,40.50
2023-02-22T17:10:17.421Z,38.60
2023-02-22T17:13:29.873Z,43.72
2023-02-22T17:16:42.516Z,41.72
2023-02-22T17:19:55.094Z,46.08
2023-02-22T17:23:08.932Z,52.25
2023-02-22T17:26:21.327Z,49.50
2023-02-22T17:29:33.948Z,44.25
2023-02-22T17:32:46.269Z,48.17
2023-02-22T17:35:59.559Z,37.53
2023-02-22T17:39:11.960Z,42.20
2023-02-22T17:42:24.534Z,37.80
2023-02-22T17:45:41.429Z,31.60
2023-02-22T17:52:09.625Z,29.95
2023-02-22T17:55:22.460Z,26.23
2023-02-22T17:58:34.839Z,30.20
2023-02-22T18:01:48.260Z,40.03
2023-02-22T18:05:01.409Z,36.03
2023-02-22T18:08:14.455Z,34.75
2023-02-22T18:11:27.988Z,42.58
2023-02-22T18:14:40.392Z,38.00
2023-02-22T18:17:53.167Z,34.15
2023-02-22T18:21:06.429Z,31.62
2023-02-22T18:24:19.071Z,34.00
2023-02-22T18:27:31.423Z,28.67
2023-02-22T18:30:44.270Z,37.83
2023-02-22T18:33:57.578Z,36.90
2023-02-22T18:37:10.260Z,45.45
2023-02-22T18:40:23.853Z,60.95
2023-02-22T18:43:36.548Z,54.83
2023-02-22T18:46:48.917Z,59.47
2023-02-22T18:50:01.531Z,51.67
2023-02-22T18:53:13.833Z,46.92
2023-02-22T18:56:30.155Z,37.47
2023-02-22T18:59:42.847Z,37.90
2023-02-22T19:02:57.711Z,27.75
2023-02-22T19:06:10.238Z,35.20
2023-02-22T19:09:23.094Z,38.85
2023-02-22T19:12:35.420Z,37.13
2023-02-22T19:15:49.031Z,32.45
2023-02-22T19:19:01.462Z,27.25
2023-02-22T19:22:17.110Z,27.02
2023-02-22T19:25:29.912Z,27.87
2023-02-22T19:28:42.529Z,28.67
2023-02-22T19:31:54.926Z,27.40
2023-02-22T19:35:08.440Z,31.15
2023-02-22T19:38:21.559Z,34.25
2023-02-22T19:41:34.247Z,32.63
2023-02-22T19:44:48.347Z,28.10
2023-02-22T19:48:00.971Z,28.87
2023-02-22T19:51:14.396Z,28.02
2023-02-22T19:54:27.519Z,29.48
2023-02-22T19:57:46.382Z,26.87
2023-02-22T20:00:59.066Z,32.55
2023-02-22T20:04:14.024Z,27.08
2023-02-22T20:07:26.414Z,25.17
2023-02-22T20:10:39.403Z,29.98
2023-02-22T20:13:51.729Z,25.73
2023-02-22T20:17:05.061Z,33.20
2023-02-22T20:20:18.252Z,33.13
2023-02-22T20:23:30.824Z,36.97
2023-02-22T20:26:43.282Z,29.23
2023-02-22T20:29:55.931Z,26.80
2023-02-22T20:33:10.313Z,26.70
2023-02-22T20:36:23.068Z,27.23
2023-02-22T20:39:35.419Z,22.67
2023-02-22T20:42:48.056Z,27.45
2023-02-22T20:46:04.002Z,23.38
2023-02-22T20:49:18.772Z,18.95
2023-02-22T20:52:31.196Z,21.50
2023-02-22T20:55:52.967Z,23.58
2023-02-22T20:59:05.381Z,25.25
2023-02-22T21:02:17.977Z,25.80
2023-02-22T21:05:32.018Z,20.42
2023-02-22T21:08:50.652Z,21.05
2023-02-22T21:15:15.509Z,22.75
2023-02-22T21:18:28.031Z,23.35
2023-02-22T21:21:40.588Z,23.27
2023-02-22T21:24:53.451Z,19.95
2023-02-22T21:28:06.071Z,18.95
2023-02-22T21:31:23.071Z,21.98
2023-02-22T21:34:36.352Z,22.85
2023-02-22T21:37:48.752Z,21.83
2023-02-22T21:41:03.272Z,22.25
2023-02-22T21:44:15.715Z,20.35
2023-02-22T21:47:31.196Z,19.02
2023-02-22T21:50:43.527Z,19.67
2023-02-22T21:53:56.309Z,18.67
2023-02-22T21:57:09.039Z,18.08
2023-02-22T22:00:29.350Z,19.95
2023-02-22T22:03:41.976Z,17.50
2023-02-22T22:06:54.715Z,15.88
2023-02-22T22:10:08.994Z,19.85
2023-02-22T22:13:25.549Z,18.52
2023-02-22T22:16:38.179Z,20.20
2023-02-22T22:19:51.745Z,21.25
2023-02-22T22:23:07.760Z,23.80
2023-02-22T22:26:20.242Z,26.45
2023-02-22T22:29:34.549Z,25.62
2023-02-22T22:32:47.072Z,39.72
2023-02-22T22:35:59.702Z,24.67
2023-02-22T22:39:14.871Z,20.95
2023-02-22T22:42:27.527Z,18.27
2023-02-22T22:45:41.009Z,19.90
2023-02-22T22:48:53.634Z,19.83
2023-02-22T22:52:09.221Z,16.75
2023-02-22T22:55:24.287Z,17.52
2023-02-22T22:58:36.666Z,17.42
2023-02-22T23:01:50.215Z,16.58
2023-02-22T23:05:02.548Z,21.87
2023-02-22T23:08:15.671Z,21.85
2023-02-22T23:11:29.355Z,20.85
2023-02-22T23:14:45.472Z,26.40
2023-02-22T23:17:59.292Z,24.83
2023-02-22T23:21:11.943Z,25.75
2023-02-22T23:24:27.285Z,23.40
2023-02-22T23:27:39.962Z,21.40
2023-02-22T23:30:52.339Z,20.37
2023-02-22T23:34:11.258Z,23.08
2023-02-22T23:37:23.979Z,26.60
2023-02-22T23:40:36.706Z,27.25
2023-02-22T23:43:49.324Z,21.52
2023-02-22T23:47:02.609Z,22.40
2023-02-22T23:50:15.055Z,26.45
2023-02-22T23:53:30.061Z,21.90
2023-02-22T23:56:53.669Z,24.05
